createdAt,value
2023-03-29T00:00:05.926Z,1204.00
2023-03-29T00:01:05.964Z,1198.00
2023-03-29T00:02:06.019Z,1197.00
2023-03-29T00:03:06.129Z,1201.00
2023-03-29T00:04:06.284Z,1206.00
2023-03-29T00:05:06.165Z,1202.00
2023-03-29T00:06:06.253Z,1199.00
2023-03-29T00:07:06.265Z,1193.00
2023-03-29T00:08:06.332Z,1193.00
2023-03-29T00:09:06.385Z,1190.00
2023-03-29T00:10:06.446Z,1192.00
2023-03-29T00:11:06.468Z,1193.00
2023-03-29T00:12:06.511Z,1194.00
2023-03-29T00:13:06.531Z,1189.00
2023-03-29T00:14:06.570Z,1189.00
2023-03-29T00:15:06.603Z,1189.00
2023-03-29T00:16:06.618Z,1193.00
2023-03-29T00:17:06.722Z,1187.00
2023-03-29T00:18:06.745Z,1188.00
2023-03-29T00:19:06.716Z,1192.00
2023-03-29T00:20:06.738Z,1195.00
2023-03-29T00:21:06.755Z,1201.00
2023-03-29T00:22:06.803Z,1194.00
2023-03-29T00:23:06.868Z,1193.00
2023-03-29T00:24:06.894Z,1191.00
2023-03-29T00:25:06.907Z,1196.00
2023-03-29T00:27:07.013Z,1197.00
2023-03-29T00:28:07.027Z,1192.00
2023-03-29T00:29:07.035Z,1186.00
2023-03-29T00:30:07.044Z,1182.00
2023-03-29T00:31:07.093Z,1182.00
2023-03-29T00:32:07.069Z,1180.00
2023-03-29T00:33:07.091Z,1179.00
2023-03-29T00:34:07.101Z,1174.00
2023-03-29T00:35:07.114Z,1175.00
2023-03-29T00:36:07.288Z,1177.00
2023-03-29T00:37:07.134Z,1177.00
2023-03-29T00:38:07.131Z,1173.00
2023-03-29T00:39:07.152Z,1177.00
2023-03-29T00:40:07.155Z,1171.00
2023-03-29T00:41:07.162Z,1169.00
2023-03-29T00:42:07.208Z,1169.00
2023-03-29T00:43:07.217Z,1166.00
2023-03-29T00:44:07.225Z,1166.00
2023-03-29T00:45:07.250Z,1166.00
2023-03-29T00:46:07.256Z,1165.00
2023-03-29T00:47:07.304Z,1164.00
2023-03-29T00:48:07.394Z,1165.00
2023-03-29T00:49:07.343Z,1166.00
2023-03-29T00:50:07.328Z,1168.00
2023-03-29T00:51:09.789Z,1166.00
2023-03-29T00:52:07.559Z,1168.00
2023-03-29T00:53:07.581Z,1167.00
2023-03-29T00:54:07.613Z,1167.00
2023-03-29T00:55:07.619Z,1167.00
2023-03-29T00:56:07.627Z,1169.00
2023-03-29T00:57:07.729Z,1168.00
2023-03-29T00:58:07.645Z,1161.00
2023-03-29T00:59:07.659Z,1161.00
2023-03-29T01:00:07.721Z,1162.00
2023-03-29T01:01:07.705Z,1159.00
2023-03-29T01:02:07.819Z,1157.00
2023-03-29T01:03:07.865Z,1158.00
2023-03-29T01:04:07.796Z,1159.00
2023-03-29T01:05:07.757Z,1161.00
2023-03-29T01:06:07.780Z,1159.00
2023-03-29T01:07:07.829Z,1161.00
2023-03-29T01:08:07.839Z,1158.00
2023-03-29T01:09:07.869Z,1159.00
2023-03-29T01:10:07.868Z,1160.00
2023-03-29T01:11:07.896Z,1160.00
2023-03-29T01:12:07.899Z,1157.00
2023-03-29T01:13:07.949Z,1153.00
2023-03-29T01:14:07.940Z,1147.00
2023-03-29T01:15:07.966Z,1147.00
2023-03-29T01:16:08.074Z,1154.00
2023-03-29T01:17:07.999Z,1153.00
2023-03-29T01:18:08.044Z,1156.00
2023-03-29T01:19:08.054Z,1153.00
2023-03-29T01:20:08.078Z,1151.00
2023-03-29T01:21:08.107Z,1157.00
2023-03-29T01:22:08.152Z,1157.00
2023-03-29T01:23:08.191Z,1154.00
2023-03-29T01:24:08.198Z,1154.00
2023-03-29T01:25:08.216Z,1153.00
2023-03-29T01:26:08.231Z,1148.00
2023-03-29T01:27:08.271Z,1145.00
2023-03-29T01:28:08.300Z,1143.00
2023-03-29T01:29:08.311Z,1145.00
2023-03-29T01:30:08.335Z,1148.00
2023-03-29T01:31:08.394Z,1149.00
2023-03-29T01:32:08.441Z,1149.00
2023-03-29T01:33:08.479Z,1148.00
2023-03-29T01:34:08.486Z,1148.00
2023-03-29T01:35:08.503Z,1151.00
2023-03-29T01:36:08.543Z,1147.00
2023-03-29T01:37:08.549Z,1144.00
2023-03-29T01:38:08.555Z,1142.00
2023-03-29T01:39:08.556Z,1144.00
2023-03-29T01:40:08.579Z,1146.00
2023-03-29T01:41:08.580Z,1143.00
2023-03-29T01:42:08.600Z,1143.00
2023-03-29T01:43:08.614Z,1138.00
2023-03-29T01:44:08.632Z,1134.00
2023-03-29T01:45:08.626Z,1136.00
2023-03-29T01:46:08.667Z,1134.00
2023-03-29T01:47:08.667Z,1133.00
2023-03-29T01:48:08.666Z,1135.00
2023-03-29T01:49:08.661Z,1135.00
2023-03-29T01:50:08.700Z,1132.00
2023-03-29T01:51:08.707Z,1130.00
2023-03-29T01:52:08.710Z,1131.00
2023-03-29T01:53:08.750Z,1133.00
2023-03-29T01:54:08.768Z,1130.00
2023-03-29T01:55:08.789Z,1129.00
2023-03-29T01:56:08.780Z,1131.00
2023-03-29T01:57:08.838Z,1132.00
2023-03-29T01:58:08.809Z,1132.00
2023-03-29T01:59:08.818Z,1133.00
2023-03-29T02:00:08.863Z,1132.00
2023-03-29T02:01:08.903Z,1127.00
2023-03-29T02:02:08.977Z,1128.00
2023-03-29T02:03:09.060Z,1126.00
2023-03-29T02:04:09.057Z,1130.00
2023-03-29T02:05:09.069Z,1129.00
2023-03-29T02:06:09.110Z,1125.00
2023-03-29T02:07:09.103Z,1121.00
2023-03-29T02:08:09.208Z,1118.00
2023-03-29T02:09:09.189Z,1119.00
2023-03-29T02:10:09.214Z,1119.00
2023-03-29T02:11:09.252Z,1119.00
2023-03-29T02:12:09.282Z,1117.00
2023-03-29T02:13:09.305Z,1117.00
2023-03-29T02:14:09.385Z,1113.00
2023-03-29T02:15:09.396Z,1110.00
2023-03-29T02:16:09.443Z,1110.00
2023-03-29T02:17:09.441Z,1113.00
2023-03-29T02:18:09.502Z,1117.00
2023-03-29T02:19:09.469Z,1114.00
2023-03-29T02:20:09.490Z,1113.00
2023-03-29T02:21:09.528Z,1113.00
2023-03-29T02:22:09.570Z,1112.00
2023-03-29T02:23:09.579Z,1114.00
2023-03-29T02:24:09.600Z,1120.00
2023-03-29T02:25:09.628Z,1123.00
2023-03-29T02:26:09.637Z,1122.00
2023-03-29T02:27:09.650Z,1120.00
2023-03-29T02:28:09.646Z,1117.00
2023-03-29T02:29:09.651Z,1117.00
2023-03-29T02:30:09.653Z,1115.00
2023-03-29T02:31:09.687Z,1110.00
2023-03-29T02:32:09.718Z,1111.00
2023-03-29T02:33:09.765Z,1108.00
2023-03-29T02:34:09.733Z,1111.00
2023-03-29T02:35:09.745Z,1108.00
2023-03-29T02:36:09.790Z,1104.00
2023-03-29T02:37:09.772Z,1106.00
2023-03-29T02:38:09.776Z,1105.00
2023-03-29T02:39:09.814Z,1107.00
2023-03-29T02:40:09.826Z,1110.00
2023-03-29T02:41:09.835Z,1110.00
2023-03-29T02:42:09.859Z,1111.00
2023-03-29T02:43:09.881Z,1110.00
2023-03-29T02:44:09.886Z,1109.00
2023-03-29T02:45:09.884Z,1108.00
2023-03-29T02:46:09.930Z,1105.00
2023-03-29T02:47:09.964Z,1101.00
2023-03-29T02:48:10.074Z,1102.00
2023-03-29T02:49:10.025Z,1101.00
2023-03-29T02:50:10.034Z,1103.00
2023-03-29T02:51:10.057Z,1106.00
2023-03-29T02:52:10.077Z,1106.00
2023-03-29T02:53:10.083Z,1108.00
2023-03-29T02:54:10.094Z,1108.00
2023-03-29T02:55:10.111Z,1108.00
2023-03-29T02:56:10.127Z,1106.00
2023-03-29T02:57:10.177Z,1106.00
2023-03-29T02:58:10.177Z,1103.00
2023-03-29T02:59:10.244Z,1102.00
2023-03-29T03:00:10.263Z,1104.00
2023-03-29T03:01:10.285Z,1107.00
2023-03-29T03:02:10.333Z,1110.00
2023-03-29T03:03:10.459Z,1109.00
2023-03-29T03:04:10.366Z,1108.00
2023-03-29T03:05:10.333Z,1108.00
2023-03-29T03:06:10.336Z,1111.00
2023-03-29T03:07:10.338Z,1111.00
2023-03-29T03:08:10.342Z,1110.00
2023-03-29T03:09:10.416Z,1109.00
2023-03-29T03:10:10.374Z,1104.00
2023-03-29T03:11:10.387Z,1102.00
2023-03-29T03:12:10.394Z,1102.00
2023-03-29T03:13:10.465Z,1104.00
2023-03-29T03:14:10.449Z,1103.00
2023-03-29T03:15:10.475Z,1099.00
2023-03-29T03:16:10.526Z,1097.00
2023-03-29T03:17:10.481Z,1098.00
2023-03-29T03:18:10.567Z,1097.00
2023-03-29T03:19:10.528Z,1094.00
2023-03-29T03:20:10.517Z,1093.00
2023-03-29T03:21:10.535Z,1094.00
2023-03-29T03:22:10.570Z,1092.00
2023-03-29T03:23:10.605Z,1094.00
2023-03-29T03:24:10.637Z,1090.00
2023-03-29T03:25:10.667Z,1088.00
2023-03-29T03:26:10.668Z,1088.00
2023-03-29T03:27:10.695Z,1083.00
2023-03-29T03:28:10.714Z,1083.00
2023-03-29T03:29:10.725Z,1083.00
2023-03-29T03:30:10.732Z,1084.00
2023-03-29T03:31:10.770Z,1083.00
2023-03-29T03:32:10.790Z,1082.00
2023-03-29T03:33:10.792Z,1086.00
2023-03-29T03:34:10.837Z,1085.00
2023-03-29T03:35:10.858Z,1082.00
2023-03-29T03:36:10.932Z,1083.00
2023-03-29T03:37:10.911Z,1082.00
2023-03-29T03:38:10.935Z,1083.00
2023-03-29T03:39:10.996Z,1082.00
2023-03-29T03:40:10.993Z,1079.00
2023-03-29T03:41:10.998Z,1077.00
2023-03-29T03:42:11.017Z,1077.00
2023-03-29T03:43:11.052Z,1075.00
2023-03-29T03:44:11.076Z,1076.00
2023-03-29T03:45:11.099Z,1076.00
2023-03-29T03:46:11.151Z,1070.00
2023-03-29T03:47:11.197Z,1070.00
2023-03-29T03:48:11.254Z,1071.00
2023-03-29T03:49:11.231Z,1073.00
2023-03-29T03:50:11.266Z,1075.00
2023-03-29T03:51:11.344Z,1074.00
2023-03-29T03:52:11.337Z,1069.00
2023-03-29T03:53:11.372Z,1071.00
2023-03-29T03:54:11.428Z,1069.00
2023-03-29T03:55:11.468Z,1069.00
2023-03-29T03:56:11.522Z,1069.00
2023-03-29T03:57:11.600Z,1071.00
2023-03-29T03:58:11.630Z,1066.00
2023-03-29T03:59:11.700Z,1065.00
2023-03-29T04:00:11.720Z,1066.00
2023-03-29T04:01:11.768Z,1065.00
2023-03-29T04:02:11.804Z,1070.00
2023-03-29T04:03:11.999Z,1070.00
2023-03-29T04:04:11.903Z,1068.00
2023-03-29T04:05:11.881Z,1069.00
2023-03-29T04:06:11.911Z,1071.00
2023-03-29T04:07:11.928Z,1073.00
2023-03-29T04:08:11.980Z,1072.00
2023-03-29T04:09:12.023Z,1073.00
2023-03-29T04:10:12.072Z,1076.00
2023-03-29T04:11:12.130Z,1074.00
2023-03-29T04:12:12.216Z,1069.00
2023-03-29T04:13:12.257Z,1072.00
2023-03-29T04:14:12.319Z,1070.00
2023-03-29T04:15:12.410Z,1071.00
2023-03-29T04:16:12.485Z,1072.00
2023-03-29T04:17:12.470Z,1069.00
2023-03-29T04:18:12.577Z,1068.00
2023-03-29T04:19:12.557Z,1066.00
2023-03-29T04:20:12.781Z,1066.00
2023-03-29T04:21:12.673Z,1063.00
2023-03-29T04:22:12.746Z,1063.00
2023-03-29T04:23:12.789Z,1061.00
2023-03-29T04:24:12.843Z,1062.00
2023-03-29T04:25:12.900Z,1064.00
2023-03-29T04:26:12.949Z,1066.00
2023-03-29T04:27:13.002Z,1064.00
2023-03-29T04:28:13.083Z,1064.00
2023-03-29T04:29:13.123Z,1065.00
2023-03-29T04:30:13.184Z,1062.00
2023-03-29T04:31:13.308Z,1061.00
2023-03-29T04:32:13.288Z,1060.00
2023-03-29T04:33:13.345Z,1059.00
2023-03-29T04:34:13.412Z,1057.00
2023-03-29T04:35:13.483Z,1057.00
2023-03-29T04:36:13.589Z,1061.00
2023-03-29T04:37:13.609Z,1059.00
2023-03-29T04:38:13.673Z,1059.00
2023-03-29T04:39:13.753Z,1057.00
2023-03-29T04:40:13.780Z,1057.00
2023-03-29T04:41:13.835Z,1055.00
2023-03-29T04:42:13.904Z,1052.00
2023-03-29T04:43:13.970Z,1052.00
2023-03-29T04:44:14.015Z,1050.00
2023-03-29T04:45:14.253Z,1051.00
2023-03-29T04:46:14.167Z,1051.00
2023-03-29T04:47:14.216Z,1048.00
2023-03-29T04:48:14.270Z,1048.00
2023-03-29T04:49:14.338Z,1046.00
2023-03-29T04:50:14.407Z,1047.00
2023-03-29T04:51:14.464Z,1047.00
2023-03-29T04:52:14.544Z,1046.00
2023-03-29T04:53:14.580Z,1045.00
2023-03-29T04:54:14.655Z,1045.00
2023-03-29T04:55:14.716Z,1046.00
2023-03-29T04:56:14.769Z,1045.00
2023-03-29T04:57:14.929Z,1049.00
2023-03-29T04:58:14.905Z,1049.00
2023-03-29T04:59:14.980Z,1048.00
2023-03-29T05:00:15.164Z,1047.00
2023-03-29T05:01:15.131Z,1046.00
2023-03-29T05:02:15.193Z,1048.00
2023-03-29T05:03:15.251Z,1048.00
2023-03-29T05:04:15.359Z,1052.00
2023-03-29T05:05:15.402Z,1052.00
2023-03-29T05:06:15.445Z,1051.00
2023-03-29T05:07:15.500Z,1049.00
2023-03-29T05:08:15.566Z,1049.00
2023-03-29T05:09:15.637Z,1049.00
2023-03-29T05:10:15.710Z,1049.00
2023-03-29T05:11:15.773Z,1049.00
2023-03-29T05:12:15.843Z,1047.00
2023-03-29T05:13:15.919Z,1047.00
2023-03-29T05:14:15.989Z,1046.00
2023-03-29T05:15:16.056Z,1046.00
2023-03-29T05:16:16.174Z,1045.00
2023-03-29T05:17:16.189Z,994.00
2023-03-29T05:18:16.217Z,1000.00
2023-03-29T05:19:16.261Z,1003.00
2023-03-29T05:20:16.304Z,1009.00
2023-03-29T05:21:16.356Z,1009.00
2023-03-29T05:22:16.422Z,1019.00
2023-03-29T05:23:16.521Z,1022.00
2023-03-29T05:24:16.557Z,1007.00
2023-03-29T05:25:16.605Z,1039.00
2023-03-29T05:26:16.661Z,1020.00
2023-03-29T05:27:16.717Z,1003.00
2023-03-29T05:28:16.795Z,997.00
2023-03-29T05:29:16.856Z,1013.00
2023-03-29T05:30:16.926Z,1030.00
2023-03-29T05:31:17.348Z,1071.00
2023-03-29T05:32:17.035Z,1039.00
2023-03-29T05:33:17.085Z,1043.00
2023-03-29T05:34:17.149Z,1050.00
2023-03-29T05:35:17.226Z,1043.00
2023-03-29T05:36:17.315Z,1038.00
2023-03-29T05:37:17.321Z,1028.00
2023-03-29T05:38:17.383Z,1026.00
2023-03-29T05:39:17.473Z,1024.00
2023-03-29T05:40:17.487Z,1025.00
2023-03-29T05:41:17.536Z,1027.00
2023-03-29T05:42:17.586Z,1029.00
2023-03-29T05:43:17.644Z,1028.00
2023-03-29T05:44:17.697Z,1030.00
2023-03-29T05:45:17.754Z,1031.00
2023-03-29T05:46:17.824Z,1029.00
2023-03-29T05:47:17.880Z,1028.00
2023-03-29T05:48:17.936Z,1026.00
2023-03-29T05:49:18.004Z,1025.00
2023-03-29T05:50:18.065Z,1026.00
2023-03-29T05:51:18.124Z,1025.00
2023-03-29T05:52:18.187Z,1023.00
2023-03-29T05:53:18.260Z,1018.00
2023-03-29T05:54:18.324Z,1017.00
2023-03-29T05:55:18.431Z,1018.00
2023-03-29T05:56:18.457Z,1017.00
2023-03-29T05:57:18.604Z,1014.00
2023-03-29T05:58:18.583Z,1014.00
2023-03-29T05:59:18.650Z,1013.00
2023-03-29T06:00:18.717Z,1009.00
2023-03-29T06:01:18.791Z,1016.00
2023-03-29T06:02:18.940Z,1012.00
2023-03-29T06:03:21.164Z,1012.00
2023-03-29T06:04:18.999Z,1012.00
2023-03-29T06:05:18.894Z,1011.00
2023-03-29T06:06:18.904Z,1010.00
2023-03-29T06:07:18.885Z,1007.00
2023-03-29T06:08:18.885Z,1005.00
2023-03-29T06:09:18.881Z,1002.00
2023-03-29T06:10:18.869Z,1000.00
2023-03-29T06:11:18.872Z,999.00
2023-03-29T06:12:18.866Z,997.00
2023-03-29T06:13:18.866Z,998.00
2023-03-29T06:14:18.855Z,1000.00
2023-03-29T06:15:18.853Z,1004.00
2023-03-29T06:16:18.918Z,1004.00
2023-03-29T06:17:18.911Z,1003.00
2023-03-29T06:18:18.843Z,1004.00
2023-03-29T06:19:18.848Z,1001.00
2023-03-29T06:20:18.851Z,1002.00
2023-03-29T06:21:18.854Z,1002.00
2023-03-29T06:22:18.857Z,998.00
2023-03-29T06:23:18.845Z,1000.00
2023-03-29T06:24:18.834Z,1000.00
2023-03-29T06:25:18.836Z,1002.00
2023-03-29T06:26:18.833Z,1006.00
2023-03-29T06:27:18.830Z,1067.00
2023-03-29T06:28:18.828Z,1087.00
2023-03-29T06:29:18.829Z,1082.00
2023-03-29T06:30:18.819Z,1089.00
2023-03-29T06:31:18.871Z,1107.00
2023-03-29T06:32:18.807Z,1148.00
2023-03-29T06:33:18.868Z,1192.00
2023-03-29T06:34:18.784Z,1201.00
2023-03-29T06:35:18.781Z,1211.00
2023-03-29T06:36:18.810Z,1230.00
2023-03-29T06:37:18.768Z,1225.00
2023-03-29T06:38:18.773Z,1239.00
2023-03-29T06:39:18.766Z,1266.00
2023-03-29T06:40:18.770Z,1279.00
2023-03-29T06:41:18.768Z,1330.00
2023-03-29T06:42:21.512Z,1346.00
2023-03-29T06:43:18.784Z,1345.00
2023-03-29T06:44:18.784Z,1339.00
2023-03-29T06:45:19.704Z,1355.00
2023-03-29T06:46:18.821Z,1400.00
2023-03-29T06:47:18.821Z,1414.00
2023-03-29T06:48:18.853Z,1418.00
2023-03-29T06:49:18.905Z,1427.00
2023-03-29T06:50:18.913Z,1442.00
2023-03-29T06:51:21.219Z,1483.00
2023-03-29T06:52:18.916Z,1489.00
2023-03-29T06:53:18.908Z,1517.00
2023-03-29T06:54:18.885Z,1550.00
2023-03-29T06:55:18.879Z,1588.00
2023-03-29T06:56:19.779Z,1595.00
2023-03-29T06:57:18.970Z,1608.00
2023-03-29T06:58:18.858Z,1628.00
2023-03-29T06:59:18.837Z,1627.00
2023-03-29T07:00:18.831Z,1639.00
2023-03-29T07:01:18.843Z,1646.00
2023-03-29T07:02:18.794Z,1680.00
2023-03-29T07:03:18.828Z,1727.00
2023-03-29T07:04:18.792Z,1725.00
2023-03-29T07:05:18.893Z,1730.00
2023-03-29T07:06:18.735Z,1750.00
2023-03-29T07:07:18.728Z,1770.00
2023-03-29T07:08:18.762Z,1788.00
2023-03-29T07:09:19.555Z,1797.00
2023-03-29T07:10:18.694Z,1812.00
2023-03-29T07:11:18.701Z,1862.00
2023-03-29T07:12:18.694Z,1862.00
2023-03-29T07:13:18.668Z,1878.00
2023-03-29T07:14:18.654Z,1898.00
2023-03-29T07:15:18.644Z,1918.00
2023-03-29T07:16:18.681Z,1943.00
2023-03-29T07:17:18.620Z,1949.00
2023-03-29T07:18:18.608Z,1990.00
2023-03-29T07:19:18.588Z,2015.00
2023-03-29T07:20:18.574Z,2019.00
2023-03-29T07:21:18.558Z,2020.00
2023-03-29T07:22:19.323Z,2026.00
2023-03-29T07:23:18.550Z,2038.00
2023-03-29T07:24:18.527Z,2049.00
2023-03-29T07:25:18.508Z,2035.00
2023-03-29T07:26:28.806Z,1999.00
2023-03-29T07:27:19.495Z,1973.00
2023-03-29T07:28:25.162Z,1956.00
2023-03-29T07:29:18.463Z,1941.00
2023-03-29T07:30:18.456Z,1929.00
2023-03-29T07:31:18.448Z,1917.00
2023-03-29T07:32:18.460Z,1906.00
2023-03-29T07:33:18.558Z,1895.00
2023-03-29T07:34:18.414Z,1886.00
2023-03-29T07:35:18.412Z,1873.00
2023-03-29T07:36:18.426Z,1843.00
2023-03-29T07:37:18.375Z,1832.00
2023-03-29T07:38:18.441Z,1825.00
2023-03-29T07:39:20.182Z,1818.00
2023-03-29T07:40:18.382Z,1816.00
2023-03-29T07:41:18.321Z,1805.00
2023-03-29T07:42:18.305Z,1797.00
2023-03-29T07:43:18.312Z,1780.00
2023-03-29T07:44:18.342Z,1761.00
2023-03-29T07:45:18.273Z,1755.00
2023-03-29T07:46:19.310Z,1753.00
2023-03-29T07:47:18.266Z,1736.00
2023-03-29T07:48:18.248Z,1714.00
2023-03-29T07:49:19.754Z,1707.00
2023-03-29T07:50:18.229Z,1707.00
2023-03-29T07:51:18.219Z,1707.00
2023-03-29T07:52:18.211Z,1698.00
2023-03-29T07:53:18.211Z,1688.00
2023-03-29T07:54:18.202Z,1679.00
2023-03-29T07:55:18.190Z,1666.00
2023-03-29T07:56:18.176Z,1653.00
2023-03-29T07:57:18.207Z,1641.00
2023-03-29T07:58:18.172Z,1630.00
2023-03-29T07:59:18.163Z,1617.00
2023-03-29T08:00:18.170Z,1598.00
2023-03-29T08:01:19.614Z,1600.00
2023-03-29T08:02:18.151Z,1595.00
2023-03-29T08:03:18.277Z,1594.00
2023-03-29T08:04:18.207Z,1585.00
2023-03-29T08:05:26.027Z,1567.00
2023-03-29T08:06:19.135Z,1566.00
2023-03-29T08:07:18.941Z,1559.00
2023-03-29T08:08:18.132Z,1552.00
2023-03-29T08:09:18.133Z,1547.00
2023-03-29T08:10:18.134Z,1540.00
2023-03-29T08:11:18.142Z,1531.00
2023-03-29T08:12:18.131Z,1507.00
2023-03-29T08:13:18.140Z,1515.00
2023-03-29T08:14:18.140Z,1475.00
2023-03-29T08:15:18.157Z,1535.00
2023-03-29T08:16:18.167Z,1522.00
2023-03-29T08:17:18.136Z,1535.00
2023-03-29T08:18:18.151Z,1170.00
2023-03-29T08:19:18.142Z,1036.00
2023-03-29T08:20:18.154Z,1158.00
2023-03-29T08:21:18.155Z,1180.00
2023-03-29T08:22:18.165Z,1256.00
2023-03-29T08:23:18.208Z,1286.00
2023-03-29T08:24:20.421Z,1302.00
2023-03-29T08:25:18.213Z,1361.00
2023-03-29T08:26:18.201Z,1361.00
2023-03-29T08:27:18.207Z,1368.00
2023-03-29T08:28:18.216Z,1428.00
2023-03-29T08:29:18.213Z,1422.00
2023-03-29T08:30:18.224Z,1520.00
2023-03-29T08:31:18.242Z,1518.00
2023-03-29T08:32:18.220Z,1602.00
2023-03-29T08:33:18.287Z,1608.00
2023-03-29T08:34:18.217Z,1660.00
2023-03-29T08:35:18.229Z,1683.00
2023-03-29T08:36:18.290Z,1694.00
2023-03-29T08:37:18.216Z,1719.00
2023-03-29T08:38:18.225Z,1772.00
2023-03-29T08:39:19.540Z,1809.00
2023-03-29T08:40:18.217Z,1843.00
2023-03-29T08:41:18.211Z,1882.00
2023-03-29T08:42:18.204Z,1895.00
2023-03-29T08:43:18.228Z,1895.00
2023-03-29T08:44:18.196Z,1915.00
2023-03-29T08:45:18.188Z,1941.00
2023-03-29T08:46:18.242Z,1966.00
2023-03-29T08:47:18.176Z,1981.00
2023-03-29T08:48:18.164Z,2021.00
2023-03-29T08:49:18.155Z,2032.00
2023-03-29T08:50:18.137Z,2041.00
2023-03-29T08:51:18.128Z,2055.00
2023-03-29T08:52:18.118Z,2076.00
2023-03-29T08:53:18.107Z,2121.00
2023-03-29T08:54:18.089Z,2131.00
2023-03-29T08:55:18.071Z,2144.00
2023-03-29T08:56:18.056Z,2159.00
2023-03-29T08:57:18.106Z,2169.00
2023-03-29T08:58:18.027Z,2180.00
2023-03-29T08:59:18.028Z,2194.00
2023-03-29T09:00:18.006Z,2212.00
2023-03-29T09:01:18.020Z,2233.00
2023-03-29T09:02:18.076Z,2250.00
2023-03-29T09:03:17.995Z,2259.00
2023-03-29T09:04:17.917Z,2267.00
2023-03-29T09:05:17.895Z,2277.00
2023-03-29T09:06:17.878Z,2297.00
2023-03-29T09:07:17.859Z,2320.00
2023-03-29T09:08:17.867Z,2335.00
2023-03-29T09:09:17.825Z,2361.00
2023-03-29T09:10:17.845Z,2368.00
2023-03-29T09:11:17.868Z,2448.00
2023-03-29T09:12:17.943Z,2455.00
2023-03-29T09:13:18.075Z,2463.00
2023-03-29T09:14:18.009Z,2472.00
2023-03-29T09:15:18.032Z,2478.00
2023-03-29T09:16:18.236Z,2495.00
2023-03-29T09:17:18.119Z,2400.00
2023-03-29T09:18:18.165Z,2513.00
2023-03-29T09:19:18.216Z,2537.00
2023-03-29T09:20:18.373Z,2536.00
2023-03-29T09:21:18.271Z,2524.00
2023-03-29T09:22:18.317Z,2548.00
2023-03-29T09:23:18.362Z,2536.00
2023-03-29T09:24:18.416Z,2526.00
2023-03-29T09:25:18.452Z,2608.00
2023-03-29T09:26:18.491Z,2607.00
2023-03-29T09:27:18.531Z,2626.00
2023-03-29T09:28:18.567Z,2639.00
2023-03-29T09:29:18.594Z,2668.00
2023-03-29T09:30:18.676Z,2682.00
2023-03-29T09:31:18.686Z,2687.00
2023-03-29T09:32:18.704Z,2698.00
2023-03-29T09:33:18.749Z,2714.00
2023-03-29T09:34:18.787Z,2729.00
2023-03-29T09:35:18.945Z,2754.00
2023-03-29T09:36:18.871Z,2747.00
2023-03-29T09:37:18.896Z,2752.00
2023-03-29T09:38:18.934Z,2756.00
2023-03-29T09:39:18.975Z,2756.00
2023-03-29T09:40:19.010Z,2767.00
2023-03-29T09:41:19.063Z,2777.00
2023-03-29T09:42:19.114Z,2780.00
2023-03-29T09:43:19.145Z,2776.00
2023-03-29T09:44:30.290Z,2787.00
2023-03-29T09:45:20.144Z,2792.00
2023-03-29T09:46:19.222Z,2818.00
2023-03-29T09:47:19.102Z,2836.00
2023-03-29T09:48:19.078Z,2858.00
2023-03-29T09:49:19.055Z,2874.00
2023-03-29T09:50:30.180Z,2937.00
2023-03-29T09:51:20.009Z,2971.00
2023-03-29T09:52:18.989Z,2975.00
2023-03-29T09:53:18.975Z,2992.00
2023-03-29T09:54:18.945Z,3026.00
2023-03-29T09:55:18.934Z,3044.00
2023-03-29T09:56:18.902Z,3066.00
2023-03-29T09:57:18.945Z,3082.00
2023-03-29T09:58:18.872Z,3112.00
2023-03-29T09:59:18.834Z,3134.00
2023-03-29T10:00:18.821Z,3177.00
2023-03-29T10:01:18.852Z,3317.00
2023-03-29T10:02:18.769Z,3394.00
2023-03-29T10:03:18.749Z,3334.00
2023-03-29T10:04:18.775Z,3460.00
2023-03-29T10:05:18.719Z,3467.00
2023-03-29T10:06:18.726Z,3423.00
2023-03-29T10:07:18.771Z,3519.00
2023-03-29T10:08:19.599Z,3521.00
2023-03-29T10:09:18.738Z,3675.00
2023-03-29T10:10:18.751Z,3467.00
2023-03-29T10:11:18.761Z,3453.00
2023-03-29T10:12:18.764Z,3285.00
2023-03-29T10:13:18.781Z,3334.00
2023-03-29T10:14:18.779Z,3354.00
2023-03-29T10:15:29.424Z,2834.00
2023-03-29T10:16:19.787Z,2786.00
2023-03-29T10:17:18.727Z,2561.00
2023-03-29T10:18:18.702Z,2310.00
2023-03-29T10:19:18.692Z,2216.00
2023-03-29T10:20:18.658Z,2203.00
2023-03-29T10:21:19.354Z,2182.00
2023-03-29T10:22:18.612Z,2118.00
2023-03-29T10:23:18.589Z,2024.00
2023-03-29T10:24:18.585Z,1924.00
2023-03-29T10:25:18.576Z,1916.00
2023-03-29T10:26:18.538Z,1870.00
2023-03-29T10:27:18.516Z,1895.00
2023-03-29T10:28:18.517Z,1932.00
2023-03-29T10:29:18.500Z,1915.00
2023-03-29T10:30:18.469Z,2113.00
2023-03-29T10:31:18.490Z,2119.00
2023-03-29T10:32:18.437Z,2141.00
2023-03-29T10:33:18.416Z,2250.00
2023-03-29T10:34:18.438Z,2241.00
2023-03-29T10:35:18.448Z,2233.00
2023-03-29T10:36:18.502Z,2219.00
2023-03-29T10:37:18.496Z,2183.00
2023-03-29T10:38:18.512Z,2181.00
2023-03-29T10:39:18.590Z,2176.00
2023-03-29T10:40:18.593Z,2162.00
2023-03-29T10:41:18.627Z,2157.00
2023-03-29T10:42:18.679Z,2159.00
2023-03-29T10:43:18.712Z,2167.00
2023-03-29T10:44:18.744Z,2174.00
2023-03-29T10:45:18.803Z,2172.00
2023-03-29T10:46:18.860Z,2152.00
2023-03-29T10:47:18.859Z,2153.00
2023-03-29T10:48:18.904Z,2150.00
2023-03-29T10:49:19.041Z,2137.00
2023-03-29T10:50:18.947Z,2122.00
2023-03-29T10:51:19.873Z,2102.00
2023-03-29T10:52:19.019Z,2107.00
2023-03-29T10:53:19.026Z,2113.00
2023-03-29T10:54:19.054Z,2119.00
2023-03-29T10:55:19.177Z,2121.00
2023-03-29T10:56:19.128Z,2112.00
2023-03-29T10:57:20.369Z,2096.00
2023-03-29T10:58:19.092Z,2087.00
2023-03-29T10:59:19.072Z,2091.00
2023-03-29T11:00:19.048Z,2067.00
2023-03-29T11:01:19.022Z,1949.00
2023-03-29T11:02:19.010Z,1923.00
2023-03-29T11:03:21.449Z,2034.00
2023-03-29T11:04:18.921Z,2038.00
2023-03-29T11:05:18.896Z,2030.00
2023-03-29T11:06:18.870Z,1907.00
2023-03-29T11:07:18.842Z,1755.00
2023-03-29T11:08:18.814Z,1738.00
2023-03-29T11:09:18.798Z,1802.00
2023-03-29T11:10:18.761Z,1896.00
2023-03-29T11:11:18.726Z,1923.00
2023-03-29T11:12:18.723Z,1864.00
2023-03-29T11:13:18.681Z,1865.00
2023-03-29T11:14:18.657Z,1864.00
2023-03-29T11:15:18.633Z,1862.00
2023-03-29T11:16:18.652Z,1856.00
2023-03-29T11:17:18.699Z,1853.00
2023-03-29T11:18:18.566Z,1855.00
2023-03-29T11:19:18.540Z,1848.00
2023-03-29T11:20:18.512Z,1840.00
2023-03-29T11:21:18.475Z,1831.00
2023-03-29T11:22:18.464Z,1824.00
2023-03-29T11:23:18.438Z,1822.00
2023-03-29T11:24:18.417Z,1812.00
2023-03-29T11:25:18.389Z,1807.00
2023-03-29T11:26:18.384Z,1803.00
2023-03-29T11:27:18.347Z,1799.00
2023-03-29T11:28:18.310Z,1797.00
2023-03-29T11:29:18.292Z,1795.00
2023-03-29T11:30:18.277Z,1797.00
2023-03-29T11:31:18.256Z,1795.00
2023-03-29T11:32:18.268Z,1793.00
2023-03-29T11:33:18.194Z,1798.00
2023-03-29T11:34:18.182Z,1798.00
2023-03-29T11:35:18.153Z,1801.00
2023-03-29T11:36:18.204Z,1798.00
2023-03-29T11:37:18.127Z,1753.00
2023-03-29T11:38:18.075Z,1541.00
2023-03-29T11:39:18.052Z,1503.00
2023-03-29T11:40:18.046Z,1364.00
2023-03-29T11:41:18.017Z,1358.00
2023-03-29T11:42:17.998Z,1384.00
2023-03-29T11:43:17.962Z,1333.00
2023-03-29T11:44:17.966Z,1401.00
2023-03-29T11:45:17.937Z,1314.00
2023-03-29T11:46:17.963Z,1299.00
2023-03-29T11:47:17.903Z,1369.00
2023-03-29T11:48:17.913Z,1442.00
2023-03-29T11:49:17.868Z,1437.00
2023-03-29T11:50:17.857Z,1441.00
2023-03-29T11:51:17.834Z,1456.00
2023-03-29T11:52:17.839Z,1463.00
2023-03-29T11:53:17.803Z,1482.00
2023-03-29T11:54:17.773Z,1485.00
2023-03-29T11:55:17.760Z,1483.00
2023-03-29T11:56:17.862Z,1485.00
2023-03-29T11:57:17.750Z,1485.00
2023-03-29T11:58:17.766Z,1485.00
2023-03-29T11:59:17.684Z,1481.00
2023-03-29T12:00:17.673Z,1476.00
2023-03-29T12:01:17.653Z,1471.00
2023-03-29T12:02:17.683Z,1469.00
2023-03-29T12:03:17.695Z,1465.00
2023-03-29T12:04:17.703Z,1455.00
2023-03-29T12:05:17.588Z,1451.00
2023-03-29T12:06:17.556Z,1446.00